Time;durP1;ratioP1;P1;durP2;ratioP2;P2;SDS_P1;SDS_P2;PMS_P1;PMS_P2;Temp;Humidity;BMP_temperature;BMP_pressure;BME280_temperature;BME280_humidity;BME280_pressure;Samples;Min_cycle;Max_cycle;Signal;HPM_P1;HPM_P2
2022/05/04 00:00:21;;;;;;;;;;;;;;;14.56;52.69;100376.50;5034733;28;20052;-72
2022/05/04 00:02:48;;;;;;;7.57;5.43;;;;;;;14.53;52.88;100375.81;5028384;28;19978;-72
2022/05/04 00:05:15;;;;;;;7.65;5.47;;;;;;;14.42;52.94;100365.00;5010476;28;20063;-71
2022/05/04 00:07:41;;;;;;;6.03;4.78;;;;;;;14.41;53.42;100373.94;5023494;28;20502;-72
2022/05/04 00:10:09;;;;;;;7.93;5.30;;;;;;;14.43;53.22;100372.03;5023877;28;20445;-72
2022/05/04 00:12:35;;;;;;;8.48;5.47;;;;;;;14.41;53.36;100365.94;5005698;28;20081;-73
2022/05/04 00:15:03;;;;;;;7.10;5.28;;;;;;;14.35;53.45;100372.47;5019228;28;20670;-70
2022/05/04 00:17:30;;;;;;;6.75;5.07;;;;;;;14.25;53.55;100358.03;5023876;28;20104;-71
2022/05/04 00:19:56;;;;;;;8.43;5.45;;;;;;;14.28;53.70;100371.16;5025404;28;20057;-72
2022/05/04 00:22:25;;;;;;;6.68;4.97;;;;;;;14.24;53.86;100374.97;5028469;28;20082;-73
2022/05/04 00:24:52;;;;;;;7.68;5.43;;;;;;;14.25;53.47;100371.34;5024574;28;20053;-72
2022/05/04 00:27:19;;;;;;;9.98;5.28;;;;;;;14.20;53.73;100371.63;5029506;28;20571;-72
2022/05/04 00:29:46;;;;;;;8.05;5.70;;;;;;;14.11;53.78;100374.00;5028463;28;20076;-72
2022/05/04 00:32:15;;;;;;;8.05;5.30;;;;;;;14.07;54.01;100375.16;5022486;28;20080;-71
2022/05/04 00:34:42;;;;;;;7.90;5.72;;;;;;;13.85;54.85;100344.50;5024561;28;20129;-72
2022/05/04 00:37:09;;;;;;;6.75;5.53;;;;;;;13.90;54.56;100346.91;5029134;28;20057;-71
2022/05/04 00:39:36;;;;;;;7.95;5.70;;;;;;;13.87;54.47;100349.75;5029847;28;20041;-71
2022/05/04 00:42:11;;;;;;;8.70;6.00;;;;;;;13.96;54.59;100362.50;5027146;28;20064;-71
2022/05/04 00:44:39;;;;;;;6.40;5.70;;;;;;;13.91;54.75;100367.25;5022533;28;20316;-70
2022/05/04 00:47:06;;;;;;;7.57;6.55;;;;;;;13.89;55.19;100370.00;5020717;28;20050;-70
2022/05/04 00:49:34;;;;;;;7.18;5.53;;;;;;;13.76;55.06;100346.88;5024425;28;20046;-71
2022/05/04 00:52:03;;;;;;;8.23;5.50;;;;;;;13.82;55.45;100366.00;5039333;28;20060;-74
2022/05/04 00:54:34;;;;;;;7.65;5.93;;;;;;;13.75;55.53;100356.69;5022863;28;20097;-70
2022/05/04 00:57:04;;;;;;;6.80;5.68;;;;;;;13.75;55.80;100367.31;5026272;28;20053;-72
2022/05/04 00:59:36;;;;;;;7.25;6.10;;;;;;;13.64;56.03;100356.47;5016827;28;20418;-73
2022/05/04 01:02:04;;;;;;;7.20;5.50;;;;;;;13.50;56.59;100346.66;5023197;28;20057;-70
2022/05/04 01:04:31;;;;;;;7.32;6.28;;;;;;;13.38;56.69;100326.09;5026872;28;20057;-71
2022/05/04 01:06:58;;;;;;;9.25;6.57;;;;;;;13.57;56.48;100361.28;5055915;28;20109;-72
2022/05/04 01:09:25;;;;;;;7.15;6.07;;;;;;;13.51;57.07;100359.03;5047171;28;20090;-71
2022/05/04 01:11:51;;;;;;;8.38;6.28;;;;;;;13.53;57.14;100364.25;5048742;28;20045;-70
2022/05/04 01:14:18;;;;;;;7.60;6.55;;;;;;;13.51;57.67;100366.16;5043079;28;20135;-72
2022/05/04 01:16:51;;;;;;;8.98;6.55;;;;;;;13.47;57.51;100362.81;5043372;28;20061;-73
2022/05/04 01:19:18;;;;;;;8.23;6.30;;;;;;;13.34;57.65;100351.19;5042042;28;20049;-72
2022/05/04 01:21:49;;;;;;;10.43;6.50;;;;;;;13.39;58.05;100359.72;5048879;28;20504;-71
2022/05/04 01:24:15;;;;;;;;;;;;;;;13.39;58.05;100367.69;5044548;28;20060;-71
2022/05/04 01:26:42;;;;;;;7.85;6.38;;;;;;;13.32;58.33;100355.72;5040467;28;19921;-71
2022/05/04 01:29:09;;;;;;;9.15;6.10;;;;;;;13.21;59.11;100355.50;5038338;28;20452;-72
2022/05/04 01:31:35;;;;;;;7.95;6.50;;;;;;;13.14;59.56;100359.44;5046200;28;20041;-74
2022/05/04 01:34:02;;;;;;;7.13;6.22;;;;;;;13.12;59.74;100361.31;5036894;28;20520;-70
2022/05/04 01:36:29;;;;;;;11.07;6.63;;;;;;;13.13;60.12;100360.38;5036365;28;21157;-72
2022/05/04 01:38:56;;;;;;;9.10;7.15;;;;;;;13.13;60.10;100373.66;5039177;28;20050;-73
2022/05/04 01:44:08;;;;;;;12.02;7.03;;;;;;;13.05;60.77;100370.59;5037466;28;20148;-73
2022/05/04 01:46:34;;;;;;;10.38;6.72;;;;;;;13.05;60.97;100363.50;5037999;28;20052;-72
2022/05/04 01:49:01;;;;;;;8.27;6.05;;;;;;;12.88;61.00;100343.19;5053875;28;20539;-71
2022/05/04 01:51:28;;;;;;;10.43;7.13;;;;;;;12.91;61.50;100358.06;5039749;28;20065;-71
2022/05/04 01:53:54;;;;;;;10.98;6.72;;;;;;;12.92;61.67;100360.66;5050518;28;20071;-71
2022/05/04 01:56:21;;;;;;;8.52;6.97;;;;;;;12.88;62.13;100355.63;5036623;28;20048;-70
2022/05/04 01:58:48;;;;;;;8.73;6.78;;;;;;;12.87;61.90;100362.72;5043288;28;20076;-70
2022/05/04 02:01:15;;;;;;;8.80;6.57;;;;;;;12.78;62.02;100359.72;5041898;28;20721;-74
2022/05/04 02:03:42;;;;;;;10.75;7.10;;;;;;;12.81;62.60;100365.72;5039422;28;20132;-71
2022/05/04 02:06:09;;;;;;;8.43;7.53;;;;;;;12.79;62.32;100367.63;5040569;28;20057;-76
2022/05/04 02:08:36;;;;;;;11.38;7.72;;;;;;;12.82;62.69;100366.59;5054556;28;20120;-73
2022/05/04 02:11:03;;;;;;;9.75;6.80;;;;;;;12.67;62.88;100339.09;5051394;28;20049;-71
2022/05/04 02:13:31;;;;;;;8.63;7.15;;;;;;;12.78;62.93;100360.59;5035122;28;20448;-71
2022/05/04 02:15:57;;;;;;;10.35;7.43;;;;;;;12.77;62.88;100369.50;5043814;28;20061;-71
2022/05/04 02:18:24;;;;;;;9.88;6.95;;;;;;;12.60;63.17;100348.31;5045118;28;20053;-70
2022/05/04 02:20:51;;;;;;;10.27;7.28;;;;;;;12.68;63.36;100361.19;5043167;28;20119;-71
2022/05/04 02:23:17;;;;;;;9.30;7.88;;;;;;;12.70;63.37;100365.50;5046260;28;20079;-71
2022/05/04 02:25:45;;;;;;;10.52;7.40;;;;;;;12.73;63.60;100369.78;5047999;28;20822;-71
2022/05/04 02:28:12;;;;;;;11.30;7.88;;;;;;;12.67;63.31;100355.03;5040330;28;20519;-72
2022/05/04 02:30:39;;;;;;;10.00;8.15;;;;;;;12.74;63.55;100366.19;5042894;28;20045;-72
2022/05/04 02:33:05;;;;;;;9.15;7.65;;;;;;;12.67;63.93;100362.13;5043304;28;20139;-71
2022/05/04 02:38:18;;;;;;;10.40;7.57;;;;;;;12.64;64.41;100372.00;5045501;28;20057;-71
2022/05/04 02:40:45;;;;;;;8.95;7.72;;;;;;;12.63;64.20;100366.75;5047958;28;20084;-71
2022/05/04 02:43:12;;;;;;;9.27;7.95;;;;;;;12.62;64.76;100373.88;5043523;28;20052;-71
2022/05/04 02:45:38;;;;;;;10.35;8.40;;;;;;;12.60;64.65;100369.56;5034795;28;20854;-71
2022/05/04 02:48:08;;;;;;;12.05;8.00;;;;;;;12.50;64.94;100341.81;5047414;28;20130;-72
2022/05/04 02:50:36;;;;;;;8.57;7.68;;;;;;;12.58;65.10;100364.38;5039296;28;20041;-73
2022/05/04 02:53:06;;;;;;;12.88;7.68;;;;;;;12.44;64.99;100339.50;5043637;28;20061;-70
2022/05/04 02:55:33;;;;;;;11.77;7.85;;;;;;;12.53;65.13;100358.47;5043613;28;20100;-73
2022/05/04 02:58:00;;;;;;;10.38;8.30;;;;;;;12.50;64.99;100355.09;5037855;28;20080;-72
2022/05/04 03:00:27;;;;;;;9.63;8.57;;;;;;;12.55;65.63;100355.72;5048203;28;20080;-70
2022/05/04 03:02:54;;;;;;;9.63;7.85;;;;;;;12.54;65.86;100359.31;5044177;28;20072;-70
2022/05/04 03:05:21;;;;;;;10.13;8.32;;;;;;;12.27;65.24;100313.91;5045869;28;20511;-73
2022/05/04 03:07:49;;;;;;;10.10;8.43;;;;;;;12.40;65.99;100337.97;5049784;28;20539;-71
2022/05/04 03:10:16;;;;;;;11.13;8.05;;;;;;;12.48;65.95;100357.84;5042677;28;20084;-71
2022/05/04 03:12:43;;;;;;;9.50;8.30;;;;;;;12.33;66.10;100328.63;5042733;28;20103;-71
2022/05/04 03:15:10;;;;;;;11.45;8.88;;;;;;;12.46;66.63;100350.91;5048809;28;20051;-71
2022/05/04 03:17:36;;;;;;;11.65;8.75;;;;;;;12.43;66.64;100349.28;5051614;28;20135;-72
2022/05/04 03:20:04;;;;;;;15.38;8.73;;;;;;;12.48;66.12;100351.66;5043809;28;20488;-74
2022/05/04 03:22:33;;;;;;;15.50;9.25;;;;;;;12.43;66.69;100351.09;5042115;28;20049;-72
2022/05/04 03:25:00;;;;;;;10.90;8.75;;;;;;;12.39;66.43;100345.09;5039632;28;20074;-71
2022/05/04 03:27:27;;;;;;;10.63;8.00;;;;;;;12.39;66.71;100349.53;5040235;28;20045;-71
2022/05/04 03:29:59;;;;;;;13.73;9.25;;;;;;;12.37;67.31;100351.41;5043357;28;20143;-71
2022/05/04 03:32:26;;;;;;;10.27;8.65;;;;;;;12.18;67.42;100314.41;5045198;28;20060;-71
2022/05/04 03:34:53;;;;;;;11.73;9.13;;;;;;;12.33;67.33;100355.19;5043420;28;20048;-71
2022/05/04 03:37:20;;;;;;;11.63;8.75;;;;;;;12.36;67.56;100361.19;5037572;28;20154;-71
2022/05/04 03:39:46;;;;;;;10.77;8.63;;;;;;;12.33;67.32;100345.41;5045006;28;20058;-73
2022/05/04 03:42:13;;;;;;;12.05;9.18;;;;;;;12.41;67.54;100358.28;5043142;28;20041;-70
2022/05/04 03:44:40;;;;;;;11.32;9.40;;;;;;;12.35;68.02;100364.78;5047384;28;20417;-71
2022/05/04 03:47:06;;;;;;;10.50;8.85;;;;;;;12.28;68.21;100350.09;5048381;28;20508;-71
2022/05/04 03:49:36;;;;;;;11.30;9.07;;;;;;;12.33;67.90;100356.03;5044328;28;20049;-71
2022/05/04 03:52:02;;;;;;;10.85;8.77;;;;;;;12.28;67.63;100348.31;5046711;28;20452;-72
2022/05/04 03:54:29;;;;;;;12.70;9.60;;;;;;;12.36;67.86;100360.31;5038397;28;20107;-72
2022/05/04 03:56:56;;;;;;;11.85;8.57;;;;;;;12.36;68.08;100355.88;5043337;28;20493;-72
2022/05/04 03:59:22;;;;;;;13.32;8.93;;;;;;;12.37;68.30;100359.38;5034092;28;20096;-70
2022/05/04 04:01:49;;;;;;;12.95;9.50;;;;;;;12.34;68.23;100357.75;5048633;28;20123;-72
2022/05/04 04:04:16;;;;;;;11.02;9.38;;;;;;;12.36;68.62;100371.81;5046364;28;20457;-71
2022/05/04 04:06:42;;;;;;;15.15;9.23;;;;;;;12.34;68.12;100363.06;5023964;28;20083;-70
2022/05/04 04:09:09;;;;;;;12.88;9.23;;;;;;;12.36;68.12;100368.28;5044592;28;20080;-71
2022/05/04 04:11:36;;;;;;;13.90;9.77;;;;;;;12.35;68.64;100363.91;5046659;28;20064;-70
2022/05/04 04:14:02;;;;;;;12.88;9.10;;;;;;;12.39;68.59;100370.78;5043528;28;20071;-71
2022/05/04 04:16:29;;;;;;;13.27;9.23;;;;;;;12.38;68.45;100377.03;5042880;28;20171;-71
2022/05/04 04:18:56;;;;;;;13.27;9.60;;;;;;;12.34;68.29;100373.69;5045666;28;20444;-70
2022/05/04 04:24:08;;;;;;;12.05;8.98;;;;;;;12.20;68.83;100347.88;5041904;28;20041;-72
2022/05/04 04:26:37;;;;;;;12.77;8.60;;;;;;;12.33;68.79;100365.78;5042968;28;20041;-72
2022/05/04 04:29:05;;;;;;;12.20;9.15;;;;;;;12.37;68.37;100373.53;5026592;28;20064;-73
2022/05/04 04:31:32;;;;;;;14.63;9.43;;;;;;;12.32;68.53;100378.22;5046477;28;20115;-72
2022/05/04 04:34:01;;;;;;;12.52;8.77;;;;;;;12.23;69.37;100374.28;5040206;28;20049;-71
2022/05/04 04:36:28;;;;;;;12.40;9.43;;;;;;;12.24;69.37;100364.50;5042679;28;20092;-71
2022/05/04 04:38:55;;;;;;;11.25;9.27;;;;;;;12.33;69.31;100390.56;5034887;28;20057;-70
2022/05/04 04:41:22;;;;;;;12.65;9.02;;;;;;;12.41;69.43;100382.19;5023327;28;20136;-70
2022/05/04 04:43:48;;;;;;;13.07;9.05;;;;;;;12.45;69.22;100386.38;5037071;28;20606;-70
2022/05/04 04:46:15;;;;;;;11.35;9.10;;;;;;;12.46;69.35;100388.09;5049353;28;20051;-73
2022/05/04 04:48:42;;;;;;;15.60;8.95;;;;;;;12.48;69.64;100400.34;5048067;28;20602;-70
2022/05/04 04:51:08;;;;;;;11.88;9.00;;;;;;;12.42;69.30;100389.22;5046780;28;20059;-75
2022/05/04 04:53:35;;;;;;;11.65;9.02;;;;;;;12.53;69.81;100400.94;5047481;28;20408;-71
2022/05/04 04:56:02;;;;;;;12.10;8.57;;;;;;;12.60;69.47;100406.78;5044983;28;20044;-73
2022/05/04 04:58:30;;;;;;;12.43;8.48;;;;;;;12.65;69.69;100397.63;5037267;28;20617;-72
2022/05/04 05:00:57;;;;;;;14.80;8.57;;;;;;;12.75;69.16;100397.13;5043068;28;20513;-74
2022/05/04 05:03:24;;;;;;;13.27;8.65;;;;;;;12.81;68.50;100394.97;5037591;28;20128;-72
2022/05/04 05:05:50;;;;;;;10.73;8.40;;;;;;;12.80;68.53;100387.94;5043078;28;20099;-71
2022/05/04 05:08:17;;;;;;;11.93;8.90;;;;;;;12.85;68.72;100391.19;5039928;28;20059;-71
2022/05/04 05:10:44;;;;;;;12.38;9.10;;;;;;;12.75;68.55;100382.00;5047103;28;20104;-70
2022/05/04 05:13:10;;;;;;;10.63;8.18;;;;;;;12.81;68.65;100394.09;5038632;28;20052;-72
2022/05/04 05:18:25;;;;;;;12.98;9.45;;;;;;;12.94;68.47;100395.13;5043351;28;20110;-71
2022/05/04 05:20:52;;;;;;;14.68;9.13;;;;;;;12.91;67.66;100374.88;5049626;28;20055;-70
2022/05/04 05:23:23;;;;;;;10.32;9.07;;;;;;;13.10;67.21;100400.41;5044955;28;20044;-71
2022/05/04 05:25:50;;;;;;;10.95;8.77;;;;;;;13.08;67.34;100386.34;5050026;28;20325;-75
2022/05/04 05:28:17;;;;;;;11.27;8.82;;;;;;;13.20;67.18;100402.50;5032272;28;20049;-71
2022/05/04 05:30:44;;;;;;;10.48;8.63;;;;;;;13.16;66.98;100392.13;5036439;28;20056;-71
2022/05/04 05:33:10;;;;;;;10.00;8.70;;;;;;;13.20;67.35;100383.03;5037635;28;20064;-72
2022/05/04 05:35:37;;;;;;;11.15;8.98;;;;;;;13.41;66.29;100405.72;5045669;28;20087;-71
2022/05/04 05:38:04;;;;;;;10.95;7.93;;;;;;;13.43;66.29;100402.97;5049623;28;20087;-70
2022/05/04 05:40:31;;;;;;;10.90;8.43;;;;;;;13.52;65.65;100405.97;5040572;28;20553;-71
2022/05/04 05:42:57;;;;;;;12.13;7.97;;;;;;;13.45;66.14;100391.28;5045581;28;20133;-73
2022/05/04 05:45:24;;;;;;;15.07;9.68;;;;;;;13.53;65.31;100402.34;5030995;28;20684;-71
2022/05/04 05:47:52;;;;;;;11.80;8.90;;;;;;;13.53;65.22;100410.34;5045626;28;20084;-71
2022/05/04 05:50:18;;;;;;;13.73;9.02;;;;;;;13.50;65.81;100414.97;5037624;28;20041;-70
2022/05/04 05:52:45;;;;;;;13.13;9.07;;;;;;;13.49;66.37;100430.09;5035241;28;20054;-71
2022/05/04 05:55:12;;;;;;;11.40;9.05;;;;;;;13.54;66.85;100421.81;5041482;28;20049;-72
2022/05/04 05:57:39;;;;;;;13.40;8.30;;;;;;;13.57;66.25;100421.63;5038806;28;20052;-72
2022/05/04 06:00:07;;;;;;;11.77;9.05;;;;;;;13.54;66.00;100417.34;5045688;28;20080;-72
2022/05/04 06:02:34;;;;;;;12.23;8.77;;;;;;;13.64;65.30;100423.84;5037929;28;20049;-72
2022/05/04 06:05:01;;;;;;;11.90;8.73;;;;;;;13.68;65.80;100424.53;5040573;28;20049;-74
2022/05/04 06:07:28;;;;;;;11.40;9.57;;;;;;;13.75;65.46;100435.66;5044319;28;20579;-74
2022/05/04 06:09:54;;;;;;;11.38;8.98;;;;;;;13.75;65.15;100430.34;5038967;28;20080;-70
2022/05/04 06:12:22;;;;;;;11.57;8.77;;;;;;;13.81;65.72;100437.97;5050900;28;20055;-71
2022/05/04 06:14:48;;;;;;;11.93;9.07;;;;;;;13.83;65.13;100415.63;5045131;28;20134;-72
2022/05/04 06:17:15;;;;;;;13.23;9.00;;;;;;;14.00;64.65;100439.44;5040615;28;20044;-71
2022/05/04 06:19:42;;;;;;;14.10;9.23;;;;;;;14.01;64.50;100429.63;5045200;28;20139;-71
2022/05/04 06:22:09;;;;;;;12.13;9.00;;;;;;;14.14;64.18;100435.06;5045758;28;20190;-71
2022/05/04 06:24:36;;;;;;;12.52;8.68;;;;;;;14.49;63.76;100440.91;5034755;28;20651;-72
2022/05/04 06:27:03;;;;;;;12.48;9.25;;;;;;;14.85;61.50;100425.25;5041766;28;20060;-70
2022/05/04 06:35:17;;;;;;;11.95;8.82;;;;;;;15.35;59.54;100450.47;5039094;28;20130;-73
2022/05/04 06:37:45;;;;;;;12.13;9.10;;;;;;;15.20;60.08;100463.00;5050983;28;20052;-74
2022/05/04 06:40:11;;;;;;;12.00;8.93;;;;;;;14.86;60.31;100424.31;5044697;28;20044;-74
2022/05/04 06:42:39;;;;;;;13.68;9.10;;;;;;;14.86;61.03;100450.13;5042950;28;20229;-70
2022/05/04 06:45:06;;;;;;;11.10;9.10;;;;;;;14.82;61.15;100451.25;5045936;28;20047;-72
2022/05/04 06:47:33;;;;;;;13.10;8.65;;;;;;;14.74;61.92;100457.09;5044955;28;20076;-74
2022/05/04 06:50:00;;;;;;;12.82;8.95;;;;;;;14.72;62.53;100451.84;5047485;28;20048;-71
2022/05/04 06:52:26;;;;;;;11.90;8.80;;;;;;;14.66;63.12;100443.38;5047561;28;20650;-71
2022/05/04 06:54:53;;;;;;;11.30;9.02;;;;;;;14.82;62.62;100451.25;5040862;28;20053;-71
2022/05/04 06:57:21;;;;;;;14.45;9.18;;;;;;;15.05;62.09;100459.50;5048420;28;20520;-71
2022/05/04 06:59:48;;;;;;;12.98;9.65;;;;;;;15.02;61.54;100465.03;5043206;28;20429;-70
2022/05/04 07:02:17;;;;;;;14.10;9.10;;;;;;;14.89;61.14;100468.59;5044260;28;20541;-72
2022/05/04 07:04:44;;;;;;;12.30;9.35;;;;;;;14.81;61.29;100461.06;5045927;28;20045;-73
2022/05/04 07:07:10;;;;;;;10.70;9.00;;;;;;;14.77;61.93;100467.56;5047181;28;20107;-73
2022/05/04 07:09:37;;;;;;;13.55;9.43;;;;;;;14.70;61.44;100453.75;5048549;28;20110;-75
2022/05/04 07:12:05;;;;;;;11.25;8.98;;;;;;;14.87;61.92;100478.50;5029171;28;20093;-72
2022/05/04 07:14:32;;;;;;;11.10;9.50;;;;;;;14.79;61.41;100449.66;5039461;28;20055;-71
2022/05/04 07:16:58;;;;;;;12.63;9.82;;;;;;;14.90;61.02;100462.31;5042896;28;20561;-73
2022/05/04 07:19:25;;;;;;;13.20;9.40;;;;;;;14.91;60.82;100467.53;5045848;28;20080;-71
2022/05/04 07:21:53;;;;;;;12.55;8.85;;;;;;;14.97;60.20;100450.28;5042919;28;20491;-73
2022/05/04 07:24:20;;;;;;;15.02;9.18;;;;;;;14.97;60.55;100464.47;5039769;28;20072;-73
2022/05/04 07:26:46;;;;;;;12.02;8.43;;;;;;;14.89;60.38;100448.13;5030445;28;20099;-72
2022/05/04 07:29:13;;;;;;;15.18;9.48;;;;;;;15.14;60.81;100455.38;5044225;28;20045;-72
2022/05/04 07:31:44;;;;;;;14.27;8.88;;;;;;;15.32;60.24;100453.34;5040706;28;20481;-71
2022/05/04 07:34:14;;;;;;;14.05;8.50;;;;;;;15.40;59.17;100429.69;5029797;28;20047;-71
2022/05/04 07:36:41;;;;;;;13.52;8.45;;;;;;;15.70;58.44;100454.34;5022306;28;20119;-72
2022/05/04 07:39:08;;;;;;;11.27;9.60;;;;;;;15.68;59.02;100458.94;5042241;28;20041;-73
2022/05/04 07:44:20;;;;;;;12.32;9.25;;;;;;;15.73;58.66;100456.81;5044467;28;20040;-72
2022/05/04 07:46:48;;;;;;;10.65;8.68;;;;;;;15.76;57.94;100442.38;5048123;28;20063;-73
2022/05/04 07:49:15;;;;;;;11.90;9.13;;;;;;;15.92;57.13;100453.75;5045425;28;20759;-72
2022/05/04 07:51:42;;;;;;;10.32;8.48;;;;;;;16.15;56.28;100457.53;5048613;28;20056;-74
2022/05/04 07:54:09;;;;;;;12.10;8.60;;;;;;;16.73;54.68;100442.75;5039951;28;20098;-75
2022/05/04 07:56:36;;;;;;;12.20;8.63;;;;;;;17.47;53.44;100449.81;5052095;28;20119;-74
2022/05/04 07:59:03;;;;;;;10.65;8.45;;;;;;;18.31;51.12;100459.44;5049666;28;20800;-74
2022/05/04 08:04:20;;;;;;;9.88;7.95;;;;;;;19.78;47.39;100463.56;5039849;28;20049;-75
2022/05/04 08:06:48;;;;;;;10.68;7.70;;;;;;;20.44;46.35;100461.50;5047440;28;20140;-73
2022/05/04 08:09:17;;;;;;;9.70;7.60;;;;;;;20.90;44.82;100454.75;5047049;28;20415;-74
2022/05/04 08:11:44;;;;;;;12.40;8.23;;;;;;;21.14;42.92;100452.56;5044084;28;20650;-74
2022/05/04 08:14:12;;;;;;;11.27;7.30;;;;;;;21.30;42.35;100452.91;5047891;28;20055;-73
2022/05/04 08:16:39;;;;;;;10.48;8.27;;;;;;;21.16;42.16;100460.50;5048049;28;20088;-72
2022/05/04 08:19:07;;;;;;;11.73;8.93;;;;;;;20.98;41.74;100460.31;5041464;28;20067;-74
2022/05/04 08:21:35;;;;;;;9.80;8.48;;;;;;;20.43;43.01;100462.50;5040368;28;20051;-73
2022/05/04 08:24:02;;;;;;;10.10;8.30;;;;;;;19.96;43.98;100455.78;5041827;28;20053;-74
2022/05/04 08:26:41;;;;;;;9.18;8.00;;;;;;;19.50;45.88;100454.28;5027924;28;20102;-75
2022/05/04 08:29:08;;;;;;;8.60;7.50;;;;;;;19.23;46.19;100456.50;5042645;28;20048;-74
2022/05/04 08:31:38;;;;;;;9.43;8.27;;;;;;;19.07;47.03;100454.22;5041823;28;20041;-73
2022/05/04 08:34:07;;;;;;;15.70;7.78;;;;;;;18.91;46.76;100456.44;5038955;28;20103;-74
2022/05/04 08:36:37;;;;;;;10.70;8.13;;;;;;;18.79;47.39;100452.06;5046577;28;20041;-73
2022/05/04 08:39:07;;;;;;;10.63;8.00;;;;;;;18.78;46.71;100426.22;5046236;28;20571;-74
2022/05/04 08:41:39;;;;;;;14.07;7.65;;;;;;;19.23;46.15;100452.00;5045768;28;20091;-72
2022/05/04 08:44:08;;;;;;;11.35;8.43;;;;;;;19.65;45.50;100438.72;5037821;28;20409;-72
2022/05/04 08:46:41;;;;;;;12.38;8.60;;;;;;;20.07;43.93;100449.50;5043785;28;20049;-71
2022/05/04 08:49:11;;;;;;;9.73;8.52;;;;;;;20.03;43.46;100432.75;5041779;28;20045;-75
2022/05/04 08:51:39;;;;;;;10.27;8.77;;;;;;;19.98;44.51;100463.72;5051449;28;20080;-73
2022/05/04 08:54:07;;;;;;;10.15;8.93;;;;;;;19.70;44.97;100457.97;5050500;28;20060;-68
2022/05/04 08:56:34;;;;;;;11.77;7.90;;;;;;;19.83;44.63;100455.97;5027889;28;21302;-73
2022/05/04 08:59:05;;;;;;;11.00;8.43;;;;;;;19.93;44.57;100443.47;5040873;28;20126;-71
2022/05/04 09:01:33;;;;;;;11.85;8.25;;;;;;;19.82;44.58;100438.16;5033809;28;20133;-70
2022/05/04 09:04:00;;;;;;;12.48;8.50;;;;;;;19.64;45.39;100450.44;5041676;28;20049;-70
2022/05/04 09:06:29;;;;;;;9.13;8.23;;;;;;;19.39;45.50;100450.72;5037988;28;20045;-71
2022/05/04 09:09:10;;;;;;;10.77;8.07;;;;;;;19.05;46.54;100448.13;5041520;28;20554;-72
2022/05/04 09:11:42;;;;;;;11.02;8.77;;;;;;;18.88;46.87;100445.97;5042820;28;20045;-70
2022/05/04 09:14:20;;;;;;;10.93;8.70;;;;;;;18.63;47.31;100451.59;5024335;28;20118;-72
2022/05/04 09:16:47;;;;;;;10.43;8.68;;;;;;;18.57;48.34;100451.06;5036768;28;20555;-72
2022/05/04 09:19:19;;;;;;;12.65;8.32;;;;;;;18.61;48.25;100448.16;5044825;28;20054;-69
2022/05/04 09:21:47;;;;;;;10.45;8.93;;;;;;;18.59;48.98;100445.59;5043125;28;20052;-71
2022/05/04 09:24:15;;;;;;;10.18;9.05;;;;;;;18.70;47.98;100451.00;5042233;28;20484;-71
2022/05/04 09:26:44;;;;;;;11.27;8.60;;;;;;;18.75;48.00;100450.59;5039890;28;20049;-71
2022/05/04 09:29:12;;;;;;;10.52;8.52;;;;;;;18.70;48.12;100447.47;5038921;28;20156;-70
2022/05/04 09:31:47;;;;;;;13.18;8.77;;;;;;;18.47;48.85;100441.19;5042486;28;20048;-71
2022/05/04 09:34:14;;;;;;;11.75;9.35;;;;;;;18.33;49.61;100436.91;5040254;28;20040;-68
2022/05/04 09:44:54;;;;;;;11.68;8.90;;;;;;;18.40;49.75;100443.53;5042551;28;20512;-71
2022/05/04 09:45:09;;;;;;;10.27;8.73;;;;;;;18.65;49.45;100438.91;5043798;28;20098;-69
2022/05/04 09:47:40;;;;;;;10.90;9.02;;;;;;;18.63;50.05;100435.50;5044662;28;20377;-73
2022/05/04 09:50:09;;;;;;;13.00;9.52;;;;;;;18.63;49.01;100435.50;5038307;28;20098;-69
2022/05/04 09:52:50;;;;;;;12.50;9.07;;;;;;;18.58;49.46;100442.06;5038032;28;20053;-71
2022/05/04 09:55:23;;;;;;;18.17;9.52;;;;;;;18.67;49.37;100436.97;5037574;28;21024;-68
2022/05/04 09:57:51;;;;;;;13.77;9.32;;;;;;;18.72;49.60;100422.22;5044344;28;20061;-74
2022/05/04 10:00:20;;;;;;;12.68;9.85;;;;;;;18.90;48.06;100444.00;5037866;28;20496;-73
2022/05/04 10:02:49;;;;;;;12.00;10.25;;;;;;;18.94;48.07;100434.72;5045308;28;20064;-67
2022/05/04 10:05:17;;;;;;;10.50;8.52;;;;;;;18.81;48.97;100404.50;5039683;28;20053;-70
2022/05/04 10:07:45;;;;;;;11.15;8.50;;;;;;;19.17;48.42;100428.34;5039615;28;20053;-72
2022/05/04 10:10:15;;;;;;;10.38;8.48;;;;;;;19.39;48.02;100418.50;5039039;28;20064;-68
2022/05/04 10:12:42;;;;;;;;;;;;;;;19.62;47.64;100428.22;5039746;28;20051;-69
2022/05/04 10:15:15;;;;;;;8.45;7.30;;;;;;;19.78;46.68;100409.84;5042085;28;19955;-75
2022/05/04 10:17:51;;;;;;;12.82;8.85;;;;;;;19.91;46.83;100399.72;5040104;28;20131;-69
2022/05/04 10:20:21;;;;;;;12.30;8.70;;;;;;;19.99;46.35;100409.81;5039428;28;20057;-69
2022/05/04 10:23:08;;;;;;;10.23;8.40;;;;;;;19.98;46.50;100415.34;5041231;28;20555;-71
2022/05/04 10:25:35;;;;;;;11.00;8.50;;;;;;;19.88;46.54;100385.69;5039784;28;20045;-69
2022/05/04 10:28:07;;;;;;;12.15;8.23;;;;;;;20.02;45.69;100416.75;5036245;28;20041;-70
2022/05/04 10:30:34;;;;;;;11.43;8.88;;;;;;;19.96;45.39;100389.44;5040083;28;20067;-71
2022/05/04 10:33:08;;;;;;;11.60;8.45;;;;;;;20.11;45.58;100394.47;5043004;28;20114;-71
2022/05/04 10:35:38;;;;;;;11.95;8.48;;;;;;;20.23;45.28;100393.41;5040631;28;20148;-74
2022/05/04 10:38:06;;;;;;;11.73;8.52;;;;;;;20.19;44.95;100392.81;5042855;28;20049;-69
2022/05/04 10:40:37;;;;;;;11.05;9.13;;;;;;;20.22;44.54;100392.56;5037036;28;20053;-71
2022/05/04 10:43:07;;;;;;;11.05;8.13;;;;;;;20.28;44.87;100396.56;5038146;28;20052;-69
2022/05/04 10:45:35;;;;;;;9.13;8.05;;;;;;;20.53;44.20;100401.50;5035643;28;20488;-71
2022/05/04 10:48:17;;;;;;;8.77;7.38;;;;;;;20.37;44.11;100349.19;5044732;28;20538;-70
2022/05/04 10:51:02;;;;;;;15.43;9.10;;;;;;;20.62;44.62;100389.91;5016357;28;20068;-69
2022/05/04 10:53:29;;;;;;;13.05;8.68;;;;;;;20.45;44.39;100387.03;5042195;28;20068;-70
2022/05/04 10:56:22;;;;;;;13.45;9.82;;;;;;;20.42;43.64;100388.16;5045942;28;20050;-70
2022/05/04 10:58:52;;;;;;;12.55;8.65;;;;;;;20.52;44.07;100374.75;5037428;28;20444;-69
2022/05/04 11:01:37;;;;;;;9.73;8.75;;;;;;;20.69;43.91;100378.63;5036066;28;20115;-71
2022/05/04 11:04:11;;;;;;;13.35;7.85;;;;;;;20.78;43.17;100372.44;5042375;28;20049;-71
2022/05/04 11:06:40;;;;;;;8.52;7.20;;;;;;;20.91;43.42;100368.50;5047438;28;20048;-72
2022/05/04 11:09:13;;;;;;;10.85;8.50;;;;;;;21.00;42.14;100367.66;5038849;28;20211;-69
2022/05/04 11:11:45;;;;;;;11.18;8.63;;;;;;;20.94;42.23;100378.97;5040932;28;20582;-75
2022/05/04 11:14:14;;;;;;;10.13;8.38;;;;;;;20.98;42.73;100363.38;5039010;28;20060;-69
2022/05/04 11:16:42;;;;;;;14.60;9.68;;;;;;;20.77;42.57;100376.13;5037370;28;20053;-70
2022/05/04 11:19:11;;;;;;;11.95;8.68;;;;;;;20.80;42.59;100373.13;5038253;28;20069;-71
2022/05/04 11:21:39;;;;;;;9.53;8.57;;;;;;;20.91;42.28;100364.94;5041559;28;20052;-69
2022/05/04 11:24:07;;;;;;;9.82;8.10;;;;;;;21.10;42.18;100364.09;5045454;28;20053;-68
2022/05/04 11:26:35;;;;;;;11.50;9.20;;;;;;;21.05;41.43;100363.69;5040901;28;20052;-70
2022/05/04 11:29:11;;;;;;;10.80;9.07;;;;;;;20.96;41.23;100350.06;5039669;28;20059;-71
2022/05/04 11:31:45;;;;;;;11.20;8.85;;;;;;;20.84;42.46;100358.41;5045038;28;20049;-69
2022/05/04 11:34:16;;;;;;;13.10;9.27;;;;;;;20.55;43.31;100337.66;5042821;28;20060;-69
2022/05/04 11:36:45;;;;;;;11.20;9.48;;;;;;;20.65;42.74;100360.06;5032449;28;20408;-70
2022/05/04 11:39:23;;;;;;;10.70;8.30;;;;;;;20.54;43.20;100335.09;5050200;28;20045;-69
2022/05/04 11:41:53;;;;;;;11.60;9.60;;;;;;;20.82;42.83;100357.69;5023501;28;20124;-67
2022/05/04 11:44:22;;;;;;;11.60;8.57;;;;;;;20.82;41.97;100360.38;5048181;28;20099;-68
2022/05/04 11:46:57;;;;;;;9.83;8.83;;;;;;;20.81;42.88;100350.59;5025735;28;20055;-67
2022/05/04 11:49:26;;;;;;;10.02;9.02;;;;;;;20.93;42.32;100353.06;5047304;28;20476;-69
2022/05/04 11:51:54;;;;;;;11.10;7.93;;;;;;;21.14;41.69;100350.22;5044081;28;20066;-69